createdAt,value
2023-06-30T00:00:28.972Z,20.42
2023-06-30T00:01:28.992Z,20.39
2023-06-30T00:02:29.100Z,20.30
2023-06-30T00:03:29.167Z,20.30
2023-06-30T00:04:29.144Z,20.31
2023-06-30T00:05:28.950Z,20.23
2023-06-30T00:06:28.901Z,20.27
2023-06-30T00:07:28.945Z,20.23
2023-06-30T00:08:28.891Z,20.21
2023-06-30T00:09:28.873Z,20.21
2023-06-30T00:10:28.857Z,20.13
2023-06-30T00:11:28.863Z,20.10
2023-06-30T00:12:28.837Z,20.15
2023-06-30T00:13:28.848Z,20.06
2023-06-30T00:14:28.823Z,20.09
2023-06-30T00:15:28.895Z,20.09
2023-06-30T00:16:28.928Z,19.95
2023-06-30T00:17:28.806Z,20.00
2023-06-30T00:18:28.876Z,19.95
2023-06-30T00:19:28.768Z,19.90
2023-06-30T00:20:28.775Z,19.95
2023-06-30T00:21:28.760Z,19.84
2023-06-30T00:22:28.749Z,19.79
2023-06-30T00:23:28.730Z,19.84
2023-06-30T00:24:28.727Z,19.84
2023-06-30T00:25:28.703Z,19.83
2023-06-30T00:26:28.696Z,19.80
2023-06-30T00:27:28.675Z,19.78
2023-06-30T00:28:28.654Z,19.68
2023-06-30T00:29:28.646Z,19.68
2023-06-30T00:30:28.648Z,19.66
2023-06-30T00:31:28.685Z,19.69
2023-06-30T00:32:28.654Z,19.61
2023-06-30T00:33:28.604Z,19.60
2023-06-30T00:34:28.622Z,19.61
2023-06-30T00:35:28.585Z,19.70
2023-06-30T00:36:28.573Z,19.65
2023-06-30T00:37:28.629Z,19.58
2023-06-30T00:38:28.565Z,19.47
2023-06-30T00:39:28.542Z,19.54
2023-06-30T00:40:28.526Z,19.51
2023-06-30T00:41:28.550Z,19.46
2023-06-30T00:42:28.514Z,19.47
2023-06-30T00:43:28.496Z,19.43
2023-06-30T00:44:28.489Z,19.35
2023-06-30T00:45:28.495Z,19.31
2023-06-30T00:46:28.492Z,19.36
2023-06-30T00:47:28.479Z,19.29
2023-06-30T00:48:28.435Z,19.28
2023-06-30T00:49:28.431Z,19.23
2023-06-30T00:50:28.506Z,19.23
2023-06-30T00:51:28.450Z,19.18
2023-06-30T00:52:28.393Z,19.05
2023-06-30T00:53:28.399Z,19.02
2023-06-30T00:54:28.476Z,18.95
2023-06-30T00:55:28.373Z,18.87
2023-06-30T00:56:28.348Z,18.95
2023-06-30T00:57:28.387Z,18.80
2023-06-30T00:58:28.331Z,18.80
2023-06-30T00:59:28.332Z,18.76
2023-06-30T01:00:28.302Z,18.70
2023-06-30T01:01:28.356Z,18.80
2023-06-30T01:02:28.387Z,18.72
2023-06-30T01:03:28.584Z,18.67
2023-06-30T01:04:28.321Z,18.70
2023-06-30T01:05:28.276Z,18.67
2023-06-30T01:06:28.264Z,18.55
2023-06-30T01:07:28.303Z,18.64
2023-06-30T01:08:28.218Z,18.58
2023-06-30T01:09:28.212Z,18.54
2023-06-30T01:10:28.209Z,18.59
2023-06-30T01:11:28.213Z,18.67
2023-06-30T01:12:28.174Z,18.62
2023-06-30T01:13:28.185Z,18.59
2023-06-30T01:14:28.150Z,18.57
2023-06-30T01:15:28.148Z,18.65
2023-06-30T01:16:28.178Z,18.55
2023-06-30T01:17:28.158Z,18.58
2023-06-30T01:18:28.146Z,18.47
2023-06-30T01:19:28.113Z,18.43
2023-06-30T01:20:28.083Z,18.52
2023-06-30T01:21:28.077Z,18.61
2023-06-30T01:22:28.116Z,18.43
2023-06-30T01:23:28.060Z,18.47
2023-06-30T01:24:28.042Z,18.37
2023-06-30T01:25:28.032Z,18.40
2023-06-30T01:26:28.091Z,18.24
2023-06-30T01:27:28.057Z,18.36
2023-06-30T01:28:27.997Z,18.27
2023-06-30T01:29:27.988Z,18.22
2023-06-30T01:30:28.000Z,18.17
2023-06-30T01:31:27.994Z,18.10
2023-06-30T01:32:27.993Z,18.15
2023-06-30T01:33:27.948Z,18.09
2023-06-30T01:34:27.929Z,17.94
2023-06-30T01:35:27.920Z,18.02
2023-06-30T01:36:27.907Z,18.06
2023-06-30T01:37:27.923Z,18.04
2023-06-30T01:38:27.908Z,17.99
2023-06-30T01:39:27.880Z,17.89
2023-06-30T01:40:27.869Z,17.99
2023-06-30T01:41:27.855Z,17.81
2023-06-30T01:42:27.869Z,17.88
2023-06-30T01:43:27.828Z,17.82
2023-06-30T01:44:27.827Z,17.95
2023-06-30T01:45:27.831Z,17.84
2023-06-30T01:46:27.834Z,17.76
2023-06-30T01:47:27.838Z,17.89
2023-06-30T01:48:27.776Z,17.78
2023-06-30T01:49:27.762Z,17.85
2023-06-30T01:50:27.761Z,17.74
2023-06-30T01:51:27.743Z,17.78
2023-06-30T01:52:27.764Z,17.69
2023-06-30T01:53:27.727Z,17.59
2023-06-30T01:54:27.738Z,17.69
2023-06-30T01:55:27.699Z,17.59
2023-06-30T01:56:27.716Z,17.50
2023-06-30T01:57:27.694Z,17.57
2023-06-30T01:58:27.683Z,17.47
2023-06-30T01:59:27.673Z,17.47
2023-06-30T02:00:27.671Z,17.53
2023-06-30T02:01:27.679Z,17.57
2023-06-30T02:02:27.720Z,17.50
2023-06-30T02:03:27.690Z,17.55
2023-06-30T02:04:27.605Z,17.48
2023-06-30T02:05:27.587Z,17.51
2023-06-30T02:06:27.581Z,17.48
2023-06-30T02:07:27.600Z,17.48
2023-06-30T02:08:27.584Z,17.50
2023-06-30T02:09:38.740Z,17.57
2023-06-30T02:10:28.556Z,17.63
2023-06-30T02:11:27.515Z,17.44
2023-06-30T02:12:27.535Z,17.38
2023-06-30T02:13:27.507Z,17.44
2023-06-30T02:14:27.486Z,17.48
2023-06-30T02:15:27.474Z,17.40
2023-06-30T02:16:27.487Z,17.43
2023-06-30T02:17:27.492Z,17.40
2023-06-30T02:18:27.445Z,17.46
2023-06-30T02:19:27.434Z,17.43
2023-06-30T02:20:27.432Z,17.43
2023-06-30T02:21:27.403Z,17.48
2023-06-30T02:22:27.416Z,17.41
2023-06-30T02:23:27.388Z,17.38
2023-06-30T02:24:27.379Z,17.40
2023-06-30T02:25:27.370Z,17.44
2023-06-30T02:26:27.435Z,17.43
2023-06-30T02:27:28.228Z,17.40
2023-06-30T02:28:27.344Z,17.50
2023-06-30T02:29:27.319Z,17.43
2023-06-30T02:30:27.318Z,17.30
2023-06-30T02:31:27.331Z,17.41
2023-06-30T02:32:27.357Z,17.36
2023-06-30T02:33:27.274Z,17.36
2023-06-30T02:34:27.264Z,17.32
2023-06-30T02:35:27.270Z,17.36
2023-06-30T02:36:27.240Z,17.36
2023-06-30T02:37:27.236Z,17.40
2023-06-30T02:38:27.257Z,17.32
2023-06-30T02:39:27.214Z,17.47
2023-06-30T02:40:27.211Z,17.35
2023-06-30T02:41:27.190Z,17.36
2023-06-30T02:42:27.242Z,17.20
2023-06-30T02:43:27.158Z,17.32
2023-06-30T02:44:27.155Z,17.36
2023-06-30T02:45:27.156Z,17.25
2023-06-30T02:46:27.211Z,17.41
2023-06-30T02:47:27.248Z,17.26
2023-06-30T02:48:27.111Z,17.28
2023-06-30T02:49:27.094Z,17.33
2023-06-30T02:50:27.130Z,17.32
2023-06-30T02:51:27.072Z,17.40
2023-06-30T02:52:27.102Z,17.38
2023-06-30T02:53:27.048Z,17.29
2023-06-30T02:54:27.052Z,17.36
2023-06-30T02:55:27.024Z,17.38
2023-06-30T02:56:27.046Z,17.26
2023-06-30T02:57:27.024Z,17.38
2023-06-30T02:58:27.275Z,17.29
2023-06-30T02:59:27.102Z,17.32
2023-06-30T03:00:27.048Z,17.26
2023-06-30T03:01:27.134Z,17.15
2023-06-30T03:02:27.258Z,17.25
2023-06-30T03:03:27.096Z,17.23
2023-06-30T03:04:27.028Z,17.32
2023-06-30T03:05:26.992Z,17.43
2023-06-30T03:06:26.921Z,17.44
2023-06-30T03:07:26.928Z,17.43
2023-06-30T03:08:26.881Z,17.35
2023-06-30T03:09:26.863Z,17.35
2023-06-30T03:10:26.862Z,17.44
2023-06-30T03:11:26.891Z,17.41
2023-06-30T03:12:26.868Z,17.41
2023-06-30T03:13:26.819Z,17.30
2023-06-30T03:14:26.832Z,17.29
2023-06-30T03:15:26.808Z,17.30
2023-06-30T03:16:26.841Z,17.38
2023-06-30T03:17:26.878Z,17.41
2023-06-30T03:18:26.766Z,17.32
2023-06-30T03:19:26.754Z,17.26
2023-06-30T03:20:26.751Z,17.33
2023-06-30T03:21:26.737Z,17.40
2023-06-30T03:22:26.744Z,17.33
2023-06-30T03:23:26.715Z,17.32
2023-06-30T03:24:26.705Z,17.35
2023-06-30T03:25:26.688Z,17.30
2023-06-30T03:26:26.674Z,17.28
2023-06-30T03:27:26.678Z,17.38
2023-06-30T03:28:26.668Z,17.33
2023-06-30T03:29:26.638Z,17.32
2023-06-30T03:30:26.678Z,17.33
2023-06-30T03:31:26.643Z,17.29
2023-06-30T03:32:26.697Z,17.33
2023-06-30T03:33:26.596Z,17.36
2023-06-30T03:34:26.593Z,17.20
2023-06-30T03:35:26.597Z,17.32
2023-06-30T03:36:26.567Z,17.25
2023-06-30T03:37:26.567Z,17.20
2023-06-30T03:38:26.595Z,17.23
2023-06-30T03:39:26.542Z,17.17
2023-06-30T03:40:26.544Z,17.28
2023-06-30T03:41:26.506Z,17.15
2023-06-30T03:42:26.510Z,17.17
2023-06-30T03:43:26.488Z,17.17
2023-06-30T03:44:26.492Z,17.13
2023-06-30T03:45:26.460Z,17.15
2023-06-30T03:46:26.510Z,17.20
2023-06-30T03:47:26.509Z,17.25
2023-06-30T03:48:26.433Z,17.18
2023-06-30T03:49:26.476Z,17.22
2023-06-30T03:50:26.424Z,17.14
2023-06-30T03:51:26.409Z,17.15
2023-06-30T03:52:26.388Z,17.14
2023-06-30T03:53:26.394Z,17.22
2023-06-30T03:54:26.372Z,17.15
2023-06-30T03:55:26.346Z,17.26
2023-06-30T03:56:26.340Z,17.11
2023-06-30T03:57:26.330Z,17.11
2023-06-30T03:58:26.374Z,17.15
2023-06-30T03:59:26.300Z,17.15
2023-06-30T04:00:26.306Z,17.18
2023-06-30T04:01:26.278Z,17.18
2023-06-30T04:02:26.389Z,17.18
2023-06-30T04:03:27.900Z,17.13
2023-06-30T04:04:26.323Z,17.17
2023-06-30T04:05:26.239Z,17.10
2023-06-30T04:06:26.229Z,17.15
2023-06-30T04:07:26.293Z,17.17
2023-06-30T04:08:26.344Z,17.18
2023-06-30T04:09:26.232Z,17.15
2023-06-30T04:10:26.184Z,17.14
2023-06-30T04:11:26.174Z,17.30
2023-06-30T04:12:26.165Z,17.17
2023-06-30T04:13:26.157Z,17.23
2023-06-30T04:14:26.141Z,17.25
2023-06-30T04:15:26.141Z,17.22
2023-06-30T04:16:26.147Z,17.35
2023-06-30T04:17:26.134Z,17.20
2023-06-30T04:18:26.115Z,17.26
2023-06-30T04:19:26.090Z,17.15
2023-06-30T04:20:26.068Z,17.32
2023-06-30T04:21:26.069Z,17.18
2023-06-30T04:22:26.051Z,17.20
2023-06-30T04:23:26.050Z,17.15
2023-06-30T04:24:26.776Z,17.23
2023-06-30T04:25:26.012Z,17.20
2023-06-30T04:26:26.030Z,17.25
2023-06-30T04:27:25.995Z,17.15
2023-06-30T04:28:26.032Z,17.22
2023-06-30T04:29:25.968Z,17.14
2023-06-30T04:30:25.974Z,17.18
2023-06-30T04:31:25.991Z,17.26
2023-06-30T04:32:25.967Z,17.18
2023-06-30T04:33:25.938Z,17.18
2023-06-30T04:34:25.938Z,17.23
2023-06-30T04:35:25.970Z,17.18
2023-06-30T04:36:25.917Z,17.33
2023-06-30T04:37:25.880Z,17.20
2023-06-30T04:38:25.926Z,17.22
2023-06-30T04:39:25.880Z,17.26
2023-06-30T04:40:25.869Z,17.29
2023-06-30T04:41:25.842Z,17.26
2023-06-30T04:42:25.847Z,17.22
2023-06-30T04:43:25.864Z,17.26
2023-06-30T04:44:25.808Z,17.26
2023-06-30T04:45:25.791Z,17.26
2023-06-30T04:46:25.847Z,17.20
2023-06-30T04:47:25.821Z,17.22
2023-06-30T04:48:25.840Z,17.20
2023-06-30T04:49:25.757Z,17.36
2023-06-30T04:50:25.761Z,17.36
2023-06-30T04:51:25.735Z,17.40
2023-06-30T04:52:25.718Z,17.41
2023-06-30T04:53:25.725Z,17.46
2023-06-30T04:54:25.701Z,17.35
2023-06-30T04:55:25.774Z,17.47
2023-06-30T04:56:25.677Z,17.33
2023-06-30T04:57:25.659Z,17.32
2023-06-30T04:58:25.697Z,17.33
2023-06-30T04:59:25.643Z,17.36
2023-06-30T05:00:25.633Z,17.44
2023-06-30T05:01:25.647Z,17.36
2023-06-30T05:02:25.640Z,17.30
2023-06-30T05:03:25.656Z,17.41
2023-06-30T05:04:25.592Z,17.43
2023-06-30T05:05:25.582Z,17.36
2023-06-30T05:06:25.588Z,17.33
2023-06-30T05:07:25.637Z,17.44
2023-06-30T05:08:25.565Z,17.43
2023-06-30T05:09:25.523Z,17.32
2023-06-30T05:10:25.517Z,17.33
2023-06-30T05:11:25.498Z,17.47
2023-06-30T05:12:25.514Z,17.38
2023-06-30T05:13:25.473Z,17.44
2023-06-30T05:14:25.494Z,17.40
2023-06-30T05:15:25.468Z,17.50
2023-06-30T05:16:25.552Z,17.50
2023-06-30T05:17:25.573Z,17.53
2023-06-30T05:18:25.466Z,17.50
2023-06-30T05:19:25.418Z,17.50
2023-06-30T05:20:25.418Z,17.64
2023-06-30T05:21:25.386Z,17.54
2023-06-30T05:22:25.400Z,17.59
2023-06-30T05:23:25.382Z,17.67
2023-06-30T05:24:25.354Z,17.57
2023-06-30T05:25:25.384Z,17.63
2023-06-30T05:26:25.335Z,17.67
2023-06-30T05:27:25.325Z,17.71
2023-06-30T05:28:25.346Z,17.67
2023-06-30T05:29:26.131Z,17.63
2023-06-30T05:30:25.292Z,17.63
2023-06-30T05:31:25.294Z,17.64
2023-06-30T05:32:25.294Z,17.63
2023-06-30T05:33:25.266Z,17.63
2023-06-30T05:34:25.251Z,17.62
2023-06-30T05:35:25.227Z,17.66
2023-06-30T05:36:25.225Z,17.57
2023-06-30T05:37:25.216Z,17.69
2023-06-30T05:38:25.269Z,17.63
2023-06-30T05:39:25.187Z,17.69
2023-06-30T05:40:25.175Z,17.63
2023-06-30T05:41:25.165Z,17.59
2023-06-30T05:42:25.149Z,17.62
2023-06-30T05:43:25.160Z,17.57
2023-06-30T05:44:25.172Z,17.62
2023-06-30T05:45:25.117Z,17.67
2023-06-30T05:46:25.111Z,17.69
2023-06-30T05:47:25.122Z,17.71
2023-06-30T05:48:25.122Z,17.70
2023-06-30T05:49:25.079Z,17.69
2023-06-30T05:50:25.058Z,17.87
2023-06-30T05:51:25.049Z,17.87
2023-06-30T05:52:25.033Z,17.87
2023-06-30T05:53:25.041Z,17.85
2023-06-30T05:54:25.037Z,17.87
2023-06-30T05:55:25.022Z,17.95
2023-06-30T05:56:24.993Z,17.88
2023-06-30T05:57:24.982Z,17.85
2023-06-30T05:58:25.016Z,17.89
2023-06-30T05:59:24.964Z,17.99
2023-06-30T06:00:24.953Z,17.87
2023-06-30T06:01:24.939Z,17.91
2023-06-30T06:02:25.192Z,17.94
2023-06-30T06:03:25.055Z,17.92
2023-06-30T06:04:25.087Z,18.03
2023-06-30T06:05:25.134Z,18.07
2023-06-30T06:06:24.875Z,17.99
2023-06-30T06:07:24.901Z,18.06
2023-06-30T06:08:24.857Z,18.00
2023-06-30T06:09:24.848Z,17.95
2023-06-30T06:10:24.852Z,18.04
2023-06-30T06:11:24.840Z,17.97
2023-06-30T06:12:24.810Z,18.04
2023-06-30T06:13:24.894Z,18.02
2023-06-30T06:14:24.787Z,18.10
2023-06-30T06:15:24.785Z,18.03
2023-06-30T06:16:24.789Z,18.07
2023-06-30T06:17:24.824Z,18.09
2023-06-30T06:18:24.745Z,18.09
2023-06-30T06:19:24.792Z,18.09
2023-06-30T06:20:24.733Z,18.12
2023-06-30T06:21:24.719Z,18.09
2023-06-30T06:22:24.704Z,18.07
2023-06-30T06:23:24.736Z,18.07
2023-06-30T06:24:24.702Z,18.09
2023-06-30T06:25:24.672Z,18.04
2023-06-30T06:26:24.682Z,18.06
2023-06-30T06:27:24.646Z,18.04
2023-06-30T06:28:24.636Z,18.09
2023-06-30T06:29:24.638Z,18.09
2023-06-30T06:30:24.650Z,18.12
2023-06-30T06:31:24.669Z,18.09
2023-06-30T06:32:24.616Z,18.02
2023-06-30T06:33:24.593Z,18.12
2023-06-30T06:34:24.588Z,18.09
2023-06-30T06:35:24.562Z,18.07
2023-06-30T06:36:24.559Z,18.12
2023-06-30T06:37:24.543Z,18.12
2023-06-30T06:38:24.529Z,18.12
2023-06-30T06:39:24.514Z,18.18
2023-06-30T06:40:24.501Z,18.12
2023-06-30T06:41:24.488Z,18.22
2023-06-30T06:42:24.540Z,18.22
2023-06-30T06:43:24.475Z,18.33
2023-06-30T06:44:24.495Z,18.34
2023-06-30T06:45:24.451Z,18.36
2023-06-30T06:46:24.471Z,18.49
2023-06-30T06:47:24.474Z,18.49
2023-06-30T06:48:24.476Z,18.59
2023-06-30T06:49:24.417Z,18.72
2023-06-30T06:50:24.411Z,18.77
2023-06-30T06:51:24.384Z,18.86
2023-06-30T06:52:24.369Z,18.97
2023-06-30T06:53:24.356Z,19.10
2023-06-30T06:54:24.369Z,19.28
2023-06-30T06:55:24.332Z,19.53
2023-06-30T06:56:24.326Z,19.57
2023-06-30T06:57:24.325Z,19.70
2023-06-30T06:58:24.322Z,19.86
2023-06-30T06:59:24.328Z,19.97
2023-06-30T07:00:24.277Z,20.10
2023-06-30T07:01:24.326Z,20.18
2023-06-30T07:02:24.302Z,20.21
2023-06-30T07:03:24.325Z,20.20
2023-06-30T07:04:24.247Z,20.31
2023-06-30T07:05:24.232Z,20.25
2023-06-30T07:06:24.208Z,20.27
2023-06-30T07:07:24.252Z,20.38
2023-06-30T07:08:24.191Z,20.33
2023-06-30T07:09:24.204Z,20.35
2023-06-30T07:10:24.171Z,20.42
2023-06-30T07:11:24.158Z,20.51
2023-06-30T07:12:24.142Z,20.61
2023-06-30T07:13:24.152Z,20.76
2023-06-30T07:14:24.162Z,21.14
2023-06-30T07:15:24.140Z,21.54
2023-06-30T07:16:24.136Z,21.99
2023-06-30T07:17:24.132Z,22.47
2023-06-30T07:18:24.180Z,22.74
2023-06-30T07:19:24.077Z,23.14
2023-06-30T07:20:24.054Z,23.39
2023-06-30T07:21:24.071Z,23.77
2023-06-30T07:22:24.042Z,24.05
2023-06-30T07:23:26.613Z,24.38
2023-06-30T07:24:24.841Z,24.57
2023-06-30T07:25:24.007Z,24.71
2023-06-30T07:26:24.009Z,24.82
2023-06-30T07:27:23.986Z,25.00
2023-06-30T07:28:23.985Z,25.12
2023-06-30T07:29:23.990Z,25.10
2023-06-30T07:30:24.060Z,25.16
2023-06-30T07:31:24.030Z,25.24
2023-06-30T07:32:23.970Z,25.22
2023-06-30T07:33:23.913Z,25.05
2023-06-30T07:34:23.901Z,24.77
2023-06-30T07:35:24.032Z,24.63
2023-06-30T07:36:23.879Z,24.34
2023-06-30T07:37:23.879Z,24.13
2023-06-30T07:38:23.866Z,24.00
2023-06-30T07:39:23.856Z,24.00
2023-06-30T07:40:24.579Z,23.76
2023-06-30T07:41:23.862Z,23.80
2023-06-30T07:42:23.812Z,23.76
2023-06-30T07:43:23.805Z,23.75
2023-06-30T07:44:23.810Z,23.80
2023-06-30T07:45:23.795Z,23.62
2023-06-30T07:46:23.823Z,23.75
2023-06-30T07:47:23.855Z,23.64
2023-06-30T07:48:23.966Z,23.65
2023-06-30T07:49:23.738Z,23.61
2023-06-30T07:50:23.769Z,23.72
2023-06-30T07:51:23.720Z,23.65
2023-06-30T07:52:23.702Z,23.71
2023-06-30T07:53:23.710Z,23.77
2023-06-30T07:54:23.695Z,23.76
2023-06-30T07:55:23.676Z,23.76
2023-06-30T07:56:23.657Z,23.89
2023-06-30T07:57:23.648Z,23.86
2023-06-30T07:58:23.641Z,23.86
2023-06-30T07:59:23.684Z,23.70
2023-06-30T08:00:23.640Z,23.71
2023-06-30T08:01:23.637Z,23.76
2023-06-30T08:02:23.770Z,23.71
2023-06-30T08:03:23.818Z,23.75
2023-06-30T08:04:23.856Z,23.68
2023-06-30T08:05:23.657Z,23.57
2023-06-30T08:06:23.548Z,23.43
2023-06-30T08:07:47.996Z,23.34
2023-06-30T08:08:24.529Z,23.27
2023-06-30T08:09:23.520Z,23.22
2023-06-30T08:10:23.583Z,23.20
2023-06-30T08:11:23.525Z,23.24
2023-06-30T08:12:23.484Z,23.15
2023-06-30T08:13:23.472Z,23.12
2023-06-30T08:14:23.478Z,23.38
2023-06-30T08:15:23.482Z,23.34
2023-06-30T08:16:23.468Z,23.50
2023-06-30T08:17:31.557Z,23.71
2023-06-30T08:18:27.951Z,23.83
2023-06-30T08:19:48.460Z,23.86
2023-06-30T08:20:24.803Z,24.04
2023-06-30T08:21:23.511Z,24.35
2023-06-30T08:22:23.380Z,24.31
2023-06-30T08:23:23.371Z,24.32
2023-06-30T08:24:23.359Z,24.59
2023-06-30T08:25:23.385Z,24.75
2023-06-30T08:26:23.342Z,25.15
2023-06-30T08:27:23.332Z,25.07
2023-06-30T08:28:23.323Z,25.37
2023-06-30T08:29:23.304Z,25.57
2023-06-30T08:30:25.314Z,25.94
2023-06-30T08:31:23.318Z,26.20
2023-06-30T08:32:23.309Z,26.43
2023-06-30T08:33:39.123Z,26.35
2023-06-30T08:34:24.266Z,26.65
2023-06-30T08:35:23.248Z,26.68
2023-06-30T08:36:23.234Z,26.69
2023-06-30T08:37:23.270Z,26.76
2023-06-30T08:38:23.206Z,26.91
2023-06-30T08:39:23.193Z,26.81
2023-06-30T08:40:23.184Z,26.52
2023-06-30T08:41:23.194Z,26.29
2023-06-30T08:42:23.183Z,26.35
2023-06-30T08:43:23.174Z,26.61
2023-06-30T08:44:23.156Z,26.50
2023-06-30T08:45:23.167Z,26.54
2023-06-30T08:46:23.215Z,26.77
2023-06-30T08:47:23.184Z,26.92
2023-06-30T08:48:23.099Z,27.05
2023-06-30T08:49:23.125Z,27.21
2023-06-30T08:50:23.131Z,27.42
2023-06-30T08:51:23.076Z,27.70
2023-06-30T08:52:23.088Z,27.92
2023-06-30T08:53:23.061Z,28.11
2023-06-30T08:54:23.047Z,28.26
2023-06-30T08:55:23.049Z,28.17
2023-06-30T08:56:23.031Z,28.28
2023-06-30T08:57:23.019Z,28.43
2023-06-30T08:58:26.527Z,28.48
2023-06-30T08:59:22.993Z,28.78
2023-06-30T09:00:23.012Z,28.91
2023-06-30T09:01:23.133Z,29.16
2023-06-30T09:02:23.118Z,29.40
2023-06-30T09:03:23.091Z,29.63
2023-06-30T09:04:22.937Z,29.78
2023-06-30T09:05:23.026Z,29.99
2023-06-30T09:06:22.956Z,30.14
2023-06-30T09:07:23.048Z,30.21
2023-06-30T09:08:22.897Z,30.40
2023-06-30T09:09:22.889Z,30.31
2023-06-30T09:10:22.874Z,30.40
2023-06-30T09:11:22.881Z,30.61
2023-06-30T09:12:22.872Z,30.74
2023-06-30T09:13:22.854Z,30.84
2023-06-30T09:14:22.841Z,30.87
2023-06-30T09:15:22.858Z,30.83
2023-06-30T09:16:22.886Z,30.81
2023-06-30T09:17:22.885Z,31.12
2023-06-30T09:18:22.812Z,31.09
2023-06-30T09:19:22.794Z,31.26
2023-06-30T09:20:22.830Z,31.35
2023-06-30T09:21:24.420Z,31.42
2023-06-30T09:22:53.032Z,31.39
2023-06-30T09:23:23.787Z,31.46
2023-06-30T09:24:22.757Z,31.46
2023-06-30T09:25:22.771Z,31.40
2023-06-30T09:26:22.728Z,31.38
2023-06-30T09:27:22.714Z,31.48
2023-06-30T09:28:22.707Z,31.40
2023-06-30T09:29:22.771Z,31.42
2023-06-30T09:30:22.682Z,31.43
2023-06-30T09:31:22.790Z,31.40
2023-06-30T09:32:22.744Z,31.40
2023-06-30T09:33:22.654Z,31.45
2023-06-30T09:34:22.653Z,31.40
2023-06-30T09:35:22.656Z,31.48
2023-06-30T09:36:22.631Z,31.49
2023-06-30T09:37:22.610Z,31.58
2023-06-30T09:38:22.657Z,31.65
2023-06-30T09:39:22.630Z,31.67
2023-06-30T09:40:22.594Z,31.72
2023-06-30T09:41:22.605Z,31.87
2023-06-30T09:42:22.564Z,31.88
2023-06-30T09:43:22.600Z,31.75
2023-06-30T09:44:22.564Z,31.46
2023-06-30T09:45:22.551Z,31.39
2023-06-30T09:46:22.589Z,31.45
2023-06-30T09:47:22.552Z,31.30
2023-06-30T09:48:22.504Z,31.42
2023-06-30T09:49:22.497Z,31.53
2023-06-30T09:50:22.511Z,31.49
2023-06-30T09:51:22.498Z,31.64
2023-06-30T09:52:22.472Z,31.76
2023-06-30T09:53:22.456Z,31.87
2023-06-30T09:54:39.310Z,31.84
2023-06-30T09:55:23.438Z,31.95
2023-06-30T09:56:22.424Z,31.68
2023-06-30T09:57:22.417Z,31.76
2023-06-30T09:58:22.422Z,31.98
2023-06-30T09:59:22.416Z,31.87
2023-06-30T10:00:35.694Z,32.06
2023-06-30T10:01:23.448Z,32.05
2023-06-30T10:02:22.385Z,32.06
2023-06-30T10:03:22.509Z,32.05
2023-06-30T10:04:22.365Z,32.02
2023-06-30T10:05:22.349Z,32.02
2023-06-30T10:06:22.349Z,31.62
2023-06-30T10:07:22.342Z,31.50
2023-06-30T10:08:22.305Z,31.33
2023-06-30T10:09:22.307Z,31.38
2023-06-30T10:10:22.307Z,31.46
2023-06-30T10:11:22.280Z,31.57
2023-06-30T10:12:22.269Z,31.50
2023-06-30T10:13:22.291Z,31.55
2023-06-30T10:14:22.279Z,31.64
2023-06-30T10:15:22.234Z,31.67
2023-06-30T10:16:22.241Z,31.75
2023-06-30T10:17:22.259Z,31.62
2023-06-30T10:18:22.229Z,31.49
2023-06-30T10:19:22.224Z,31.43
2023-06-30T10:20:30.594Z,31.30
2023-06-30T10:21:23.178Z,31.17
2023-06-30T10:22:22.202Z,31.01
2023-06-30T10:23:22.269Z,30.84
2023-06-30T10:24:22.181Z,30.57
2023-06-30T10:25:22.177Z,30.38
2023-06-30T10:26:22.257Z,30.53
2023-06-30T10:27:22.117Z,30.38
2023-06-30T10:28:22.133Z,30.46
2023-06-30T10:29:22.111Z,30.50
2023-06-30T10:30:22.112Z,30.52
2023-06-30T10:31:22.081Z,30.57
2023-06-30T10:32:22.192Z,30.59
2023-06-30T10:33:22.104Z,30.64
2023-06-30T10:34:22.085Z,30.68
2023-06-30T10:35:22.044Z,30.62
2023-06-30T10:36:22.078Z,30.65
2023-06-30T10:37:22.025Z,30.56
2023-06-30T10:38:22.015Z,30.52
2023-06-30T10:39:22.007Z,30.50
2023-06-30T10:40:22.020Z,30.53
2023-06-30T10:41:21.983Z,30.62
2023-06-30T10:42:22.048Z,30.56
2023-06-30T10:43:21.962Z,30.59
2023-06-30T10:44:21.991Z,30.61
2023-06-30T10:45:21.946Z,30.74
2023-06-30T10:46:21.995Z,30.81
2023-06-30T10:47:21.931Z,30.78
2023-06-30T10:48:21.949Z,30.50
2023-06-30T10:49:21.923Z,30.30
2023-06-30T10:50:21.912Z,30.18
2023-06-30T10:51:22.002Z,30.18
2023-06-30T10:52:21.882Z,30.16
2023-06-30T10:53:21.879Z,30.37
2023-06-30T10:54:21.911Z,30.30
2023-06-30T10:55:21.849Z,30.27
2023-06-30T10:56:21.870Z,30.18
2023-06-30T10:57:21.821Z,30.29
2023-06-30T10:58:21.850Z,30.18
2023-06-30T10:59:21.825Z,30.27
2023-06-30T11:00:21.803Z,30.03
2023-06-30T11:01:21.805Z,29.90
2023-06-30T11:02:21.795Z,29.86
2023-06-30T11:03:21.838Z,29.74
2023-06-30T11:04:21.964Z,29.66
2023-06-30T11:05:21.803Z,29.55
2023-06-30T11:06:21.765Z,29.49
2023-06-30T11:07:21.761Z,29.44
2023-06-30T11:08:21.732Z,29.44
2023-06-30T11:09:21.746Z,29.37
2023-06-30T11:10:21.710Z,29.40
2023-06-30T11:11:21.697Z,29.28
2023-06-30T11:12:21.678Z,29.28
2023-06-30T11:13:21.666Z,29.33
2023-06-30T11:14:21.674Z,29.28
2023-06-30T11:15:21.672Z,29.18
2023-06-30T11:16:21.661Z,29.10
2023-06-30T11:17:21.721Z,29.19
2023-06-30T11:18:21.679Z,29.23
2023-06-30T11:19:21.629Z,29.26
2023-06-30T11:20:21.617Z,29.31
2023-06-30T11:21:21.580Z,29.18
2023-06-30T11:22:21.577Z,29.26
2023-06-30T11:23:21.574Z,29.22
2023-06-30T11:24:21.586Z,29.20
2023-06-30T11:25:21.560Z,29.20
2023-06-30T11:26:21.537Z,29.10
2023-06-30T11:27:21.533Z,29.06
2023-06-30T11:28:21.515Z,29.18
2023-06-30T11:29:21.542Z,29.08
2023-06-30T11:30:21.518Z,28.85
2023-06-30T11:31:21.732Z,28.85
2023-06-30T11:32:21.491Z,28.90
2023-06-30T11:33:21.480Z,28.93
2023-06-30T11:34:21.467Z,28.97
2023-06-30T11:35:21.444Z,28.82
2023-06-30T11:36:21.425Z,28.84
2023-06-30T11:37:21.411Z,28.96
2023-06-30T11:38:21.433Z,29.00
2023-06-30T11:39:21.413Z,29.06
2023-06-30T11:40:21.399Z,29.06
2023-06-30T11:41:21.386Z,29.23
2023-06-30T11:42:21.381Z,29.26
2023-06-30T11:43:21.355Z,29.26
2023-06-30T11:44:21.384Z,29.38
2023-06-30T11:45:21.339Z,29.08
2023-06-30T11:46:21.430Z,29.04
2023-06-30T11:47:21.380Z,28.84
2023-06-30T11:48:21.313Z,28.82
2023-06-30T11:49:21.285Z,28.82
2023-06-30T11:50:21.641Z,28.78
2023-06-30T11:51:21.280Z,28.70
2023-06-30T11:52:21.336Z,28.69
2023-06-30T11:53:21.250Z,28.73
2023-06-30T11:54:21.245Z,28.80
2023-06-30T11:55:21.273Z,28.72
2023-06-30T11:56:21.219Z,28.69
2023-06-30T11:57:21.198Z,28.65
2023-06-30T11:58:21.204Z,28.60
2023-06-30T11:59:21.186Z,28.47
2023-06-30T12:00:21.236Z,28.35
2023-06-30T12:01:21.544Z,28.38
2023-06-30T12:02:21.225Z,28.32
2023-06-30T12:03:21.177Z,28.32
2023-06-30T12:04:21.216Z,28.29
2023-06-30T12:05:21.181Z,28.23
2023-06-30T12:06:21.145Z,28.16
2023-06-30T12:07:21.154Z,28.32
2023-06-30T12:08:21.091Z,28.19
2023-06-30T12:09:21.076Z,28.13
2023-06-30T12:10:21.120Z,28.21
2023-06-30T12:11:21.072Z,28.21
2023-06-30T12:12:21.056Z,28.06
2023-06-30T12:13:21.034Z,27.85
2023-06-30T12:14:21.035Z,27.64
2023-06-30T12:15:21.032Z,27.42
2023-06-30T12:16:21.057Z,27.42
2023-06-30T12:17:21.044Z,27.39
2023-06-30T12:18:21.006Z,27.43
2023-06-30T12:19:20.966Z,27.26
2023-06-30T12:20:20.995Z,27.31
2023-06-30T12:21:20.948Z,27.17
2023-06-30T12:22:20.940Z,27.09
2023-06-30T12:23:20.922Z,26.94
2023-06-30T12:24:20.931Z,26.86
2023-06-30T12:25:20.934Z,26.87
2023-06-30T12:26:20.940Z,26.81
2023-06-30T12:27:20.897Z,26.74
2023-06-30T12:28:20.888Z,26.74
2023-06-30T12:29:20.873Z,26.58
2023-06-30T12:30:20.854Z,26.52
2023-06-30T12:31:20.925Z,26.36
2023-06-30T12:32:20.966Z,26.44
2023-06-30T12:33:20.832Z,26.47
2023-06-30T12:34:20.857Z,26.65
2023-06-30T12:35:20.802Z,26.59
2023-06-30T12:36:20.835Z,26.80
2023-06-30T12:37:20.795Z,26.91
2023-06-30T12:38:20.797Z,27.01
2023-06-30T12:39:20.771Z,27.10
2023-06-30T12:40:20.752Z,27.14
2023-06-30T12:41:20.791Z,27.39
2023-06-30T12:42:20.752Z,27.43
2023-06-30T12:43:20.722Z,27.41
2023-06-30T12:44:20.842Z,27.48
2023-06-30T12:45:21.542Z,27.50
2023-06-30T12:46:20.742Z,27.64
2023-06-30T12:47:20.746Z,27.76
2023-06-30T12:48:20.675Z,27.76
2023-06-30T12:49:20.654Z,27.85
2023-06-30T12:50:20.820Z,27.85
2023-06-30T12:51:20.730Z,27.79
2023-06-30T12:52:20.621Z,27.86